createdAt,value
2023-04-30T00:02:07.175Z,91.73
2023-04-30T00:04:24.905Z,90.62
2023-04-30T00:06:43.332Z,91.82
2023-04-30T00:09:01.049Z,91.82
2023-04-30T00:11:22.222Z,92.09
2023-04-30T00:13:39.512Z,92.61
2023-04-30T00:15:56.661Z,91.82
2023-04-30T00:18:13.922Z,92.12
2023-04-30T00:20:31.893Z,92.17
2023-04-30T00:22:50.173Z,91.63
2023-04-30T00:25:07.914Z,92.79
2023-04-30T00:27:26.340Z,92.14
2023-04-30T00:29:43.577Z,91.58
2023-04-30T00:32:01.252Z,92.92
2023-04-30T00:34:20.140Z,92.32
2023-04-30T00:36:37.473Z,92.38
2023-04-30T00:38:54.817Z,92.59
2023-04-30T00:41:11.749Z,93.41
2023-04-30T00:43:28.795Z,92.65
2023-04-30T00:45:46.212Z,92.25
2023-04-30T00:48:04.538Z,92.85
2023-04-30T00:50:21.855Z,93.78
2023-04-30T00:52:38.774Z,92.18
2023-04-30T00:54:57.149Z,93.83
2023-04-30T00:57:13.986Z,93.77
2023-04-30T00:59:31.280Z,93.33
2023-04-30T01:01:48.716Z,93.32
2023-04-30T01:04:06.692Z,93.05
2023-04-30T01:06:24.226Z,92.68
2023-04-30T01:08:43.010Z,93.11
2023-04-30T01:11:00.219Z,93.21
2023-04-30T01:13:17.563Z,92.97
2023-04-30T01:15:34.575Z,93.51
2023-04-30T01:17:51.973Z,92.47
2023-04-30T01:20:09.951Z,93.58
2023-04-30T01:22:27.269Z,93.58
2023-04-30T01:24:44.573Z,93.49
2023-04-30T01:27:01.846Z,93.79
2023-04-30T01:29:20.191Z,93.75
2023-04-30T01:31:37.148Z,93.62
2023-04-30T01:33:55.377Z,93.53
2023-04-30T01:36:12.298Z,93.11
2023-04-30T01:38:29.443Z,93.71
2023-04-30T01:40:46.777Z,92.62
2023-04-30T01:43:04.511Z,94.20
2023-04-30T01:45:22.122Z,93.80
2023-04-30T01:47:40.108Z,94.25
2023-04-30T01:49:57.514Z,93.73
2023-04-30T01:52:16.043Z,93.67
2023-04-30T01:54:33.569Z,93.48
2023-04-30T01:56:50.829Z,93.95
2023-04-30T01:59:08.198Z,93.65
2023-04-30T02:01:28.139Z,94.21
2023-04-30T02:03:45.075Z,93.86
2023-04-30T02:06:02.747Z,92.98
2023-04-30T02:08:20.454Z,93.90
2023-04-30T02:10:37.477Z,93.16
2023-04-30T02:12:55.127Z,93.89
2023-04-30T02:15:12.852Z,94.39
2023-04-30T02:17:33.600Z,94.25
2023-04-30T02:19:53.899Z,94.21
2023-04-30T02:22:11.024Z,94.11
2023-04-30T02:24:28.397Z,93.49
2023-04-30T02:26:48.633Z,94.12
2023-04-30T02:29:06.051Z,93.48
2023-04-30T02:31:23.385Z,93.87
2023-04-30T02:33:41.035Z,93.82
2023-04-30T02:35:59.741Z,93.33
2023-04-30T02:38:18.047Z,93.85
2023-04-30T02:43:10.083Z,94.28
2023-04-30T02:45:27.382Z,93.73
2023-04-30T02:47:44.303Z,94.40
2023-04-30T02:50:01.631Z,94.38
2023-04-30T02:52:19.011Z,94.86
2023-04-30T02:54:35.989Z,94.26
2023-04-30T02:56:52.919Z,94.61
2023-04-30T02:59:10.161Z,94.42
2023-04-30T03:01:27.569Z,94.64
2023-04-30T03:03:44.601Z,94.14
2023-04-30T03:06:02.984Z,94.23
2023-04-30T03:08:20.370Z,94.79
2023-04-30T03:10:37.828Z,94.53
2023-04-30T03:12:55.713Z,94.43
2023-04-30T03:15:12.948Z,93.73
2023-04-30T03:17:30.187Z,93.85
2023-04-30T03:19:47.600Z,94.34
2023-04-30T03:22:04.976Z,93.61
2023-04-30T03:24:22.269Z,94.31
2023-04-30T03:26:39.606Z,95.03
2023-04-30T03:28:56.961Z,93.26
2023-04-30T03:31:14.268Z,93.43
2023-04-30T03:33:32.163Z,94.21
2023-04-30T03:35:49.609Z,94.39
2023-04-30T03:38:06.955Z,94.45
2023-04-30T03:40:24.250Z,94.67
2023-04-30T03:42:41.616Z,94.37
2023-04-30T03:44:58.813Z,93.97
2023-04-30T03:47:15.877Z,93.08
2023-04-30T03:49:33.503Z,93.50
2023-04-30T03:51:51.468Z,93.95
2023-04-30T03:54:09.715Z,94.95
2023-04-30T03:56:27.064Z,93.75
2023-04-30T03:58:44.355Z,93.85
2023-04-30T04:01:01.324Z,94.45
2023-04-30T04:03:19.090Z,95.17
2023-04-30T04:05:36.441Z,93.79
2023-04-30T04:07:53.676Z,95.19
2023-04-30T04:10:10.984Z,95.13
2023-04-30T04:12:28.669Z,94.80
2023-04-30T04:14:45.986Z,95.16
2023-04-30T04:17:04.060Z,95.57
2023-04-30T04:19:21.506Z,95.23
2023-04-30T04:21:39.195Z,94.32
2023-04-30T04:23:56.263Z,94.38
2023-04-30T04:26:14.572Z,94.42
2023-04-30T04:28:32.429Z,94.93
2023-04-30T04:30:49.799Z,95.46
2023-04-30T04:33:07.200Z,94.27
2023-04-30T04:35:24.490Z,95.38
2023-04-30T04:37:41.758Z,95.00
2023-04-30T04:40:00.039Z,95.01
2023-04-30T04:42:25.239Z,95.54
2023-04-30T04:44:42.575Z,95.54
2023-04-30T04:46:59.893Z,94.97
2023-04-30T04:49:17.418Z,95.62
2023-04-30T04:51:34.374Z,94.27
2023-04-30T04:53:51.614Z,95.58
2023-04-30T04:56:09.006Z,95.37
2023-04-30T04:58:25.942Z,95.51
2023-04-30T05:00:44.326Z,96.03
2023-04-30T05:03:02.050Z,95.59
2023-04-30T05:05:19.507Z,95.67
2023-04-30T05:07:36.839Z,95.05
2023-04-30T05:09:53.977Z,94.87
2023-04-30T05:12:11.489Z,95.21
2023-04-30T05:14:28.832Z,95.11
2023-04-30T05:16:47.207Z,94.77
2023-04-30T05:19:04.558Z,94.81
2023-04-30T05:21:24.140Z,95.25
2023-04-30T05:23:42.422Z,94.07
2023-04-30T05:25:59.762Z,94.86
2023-04-30T05:28:18.095Z,94.33
2023-04-30T05:30:37.810Z,93.96
2023-04-30T05:32:57.612Z,93.87
2023-04-30T05:35:15.898Z,93.60
2023-04-30T05:37:33.119Z,93.03
2023-04-30T05:39:51.339Z,93.11
2023-04-30T05:42:08.656Z,93.32
2023-04-30T05:44:25.965Z,92.68
2023-04-30T05:46:43.195Z,92.76
2023-04-30T05:49:01.530Z,92.94
2023-04-30T05:51:20.765Z,92.15
2023-04-30T05:53:38.997Z,91.84
2023-04-30T05:55:56.282Z,91.51
2023-04-30T05:58:13.728Z,91.50
2023-04-30T06:00:31.077Z,90.92
2023-04-30T06:02:48.961Z,91.05
2023-04-30T06:05:07.353Z,90.84
2023-04-30T06:07:24.757Z,89.91
2023-04-30T06:09:42.130Z,85.94
2023-04-30T06:11:59.552Z,85.70
2023-04-30T06:14:17.412Z,82.19
2023-04-30T06:16:34.947Z,81.85
2023-04-30T06:18:53.655Z,81.73
2023-04-30T06:21:11.097Z,81.95
2023-04-30T06:23:28.440Z,80.69
2023-04-30T06:25:45.454Z,79.25
2023-04-30T06:28:03.416Z,77.79
2023-04-30T06:30:23.571Z,77.43
2023-04-30T06:32:40.566Z,77.93
2023-04-30T06:34:57.928Z,75.56
2023-04-30T06:37:15.552Z,74.50
2023-04-30T06:39:32.881Z,74.49
2023-04-30T06:41:50.131Z,73.31
2023-04-30T06:44:08.501Z,73.13
2023-04-30T06:46:25.835Z,72.83
2023-04-30T06:48:43.134Z,72.39
2023-04-30T06:51:00.168Z,71.64
2023-04-30T06:53:17.571Z,72.83
2023-04-30T06:55:34.544Z,71.09
2023-04-30T06:57:51.893Z,69.84
2023-04-30T07:00:09.208Z,67.85
2023-04-30T07:02:27.527Z,67.42
2023-04-30T07:04:44.874Z,69.32
2023-04-30T07:07:02.117Z,67.55
2023-04-30T07:09:19.372Z,70.61
2023-04-30T07:11:36.290Z,69.58
2023-04-30T07:13:53.644Z,68.15
2023-04-30T07:16:11.066Z,66.95
2023-04-30T07:18:30.796Z,67.08
2023-04-30T07:20:48.105Z,66.58
2023-04-30T07:23:05.383Z,66.05
2023-04-30T07:25:22.596Z,65.53
2023-04-30T07:27:39.896Z,67.27
2023-04-30T07:29:57.341Z,64.42
2023-04-30T07:32:14.627Z,65.90
2023-04-30T07:34:31.923Z,64.55
2023-04-30T07:36:48.995Z,63.90
2023-04-30T07:39:06.290Z,62.73
2023-04-30T07:41:23.369Z,62.28
2023-04-30T07:43:40.603Z,63.42
2023-04-30T07:45:57.927Z,62.34
2023-04-30T07:48:14.978Z,62.52
2023-04-30T07:50:31.890Z,63.03
2023-04-30T07:52:48.794Z,62.78
2023-04-30T07:55:05.735Z,61.16
2023-04-30T07:57:22.609Z,61.32
2023-04-30T07:59:40.156Z,61.38
2023-04-30T08:01:57.503Z,61.02
2023-04-30T08:04:15.545Z,61.55
2023-04-30T08:06:36.416Z,60.80
2023-04-30T08:08:53.578Z,60.48
2023-04-30T08:11:10.593Z,59.76
2023-04-30T08:13:28.942Z,61.32
2023-04-30T08:15:45.883Z,61.38
2023-04-30T08:18:03.320Z,58.84
2023-04-30T08:20:20.743Z,58.41
2023-04-30T08:22:38.164Z,59.58
2023-04-30T08:24:57.627Z,59.01
2023-04-30T08:27:15.181Z,58.56
2023-04-30T08:29:37.582Z,59.49
2023-04-30T08:31:55.598Z,57.55
2023-04-30T08:34:12.920Z,58.32
2023-04-30T08:36:30.250Z,59.08
2023-04-30T08:38:47.620Z,58.01
2023-04-30T08:41:04.963Z,56.87
2023-04-30T08:43:22.667Z,57.32
2023-04-30T08:45:40.066Z,58.17
2023-04-30T08:47:57.152Z,58.48
2023-04-30T08:50:15.314Z,58.89
2023-04-30T08:52:32.638Z,57.63
2023-04-30T08:54:50.993Z,57.42
2023-04-30T08:57:08.318Z,56.08
2023-04-30T08:59:25.347Z,59.23
2023-04-30T09:01:42.303Z,57.61
2023-04-30T09:03:59.792Z,55.98
2023-04-30T09:06:17.431Z,55.22
2023-04-30T09:08:35.744Z,54.51
2023-04-30T09:10:52.752Z,55.38
2023-04-30T09:13:11.344Z,55.55
2023-04-30T09:15:28.513Z,55.58
2023-04-30T09:17:47.084Z,54.24
2023-04-30T09:20:06.772Z,55.83
2023-04-30T09:22:24.096Z,55.03
2023-04-30T09:24:40.996Z,55.61
2023-04-30T09:26:58.426Z,53.53
2023-04-30T09:29:15.718Z,52.89
2023-04-30T09:31:34.086Z,54.99
2023-04-30T09:33:51.429Z,52.31
2023-04-30T09:36:08.723Z,52.68
2023-04-30T09:38:26.046Z,52.83
2023-04-30T09:40:43.440Z,55.03
2023-04-30T09:43:00.416Z,54.00
2023-04-30T09:45:22.022Z,52.14
2023-04-30T09:47:39.012Z,52.54
2023-04-30T09:49:56.403Z,50.42
2023-04-30T09:52:14.183Z,51.46
2023-04-30T09:54:31.657Z,50.47
2023-04-30T09:59:22.212Z,50.20
2023-04-30T10:01:41.939Z,51.24
2023-04-30T10:04:00.859Z,50.10
2023-04-30T10:06:19.406Z,50.20
2023-04-30T10:08:36.839Z,49.06
2023-04-30T10:10:54.075Z,48.19
2023-04-30T10:13:11.315Z,46.50
2023-04-30T10:15:28.401Z,47.84
2023-04-30T10:17:45.309Z,48.27
2023-04-30T10:20:02.617Z,48.12
2023-04-30T10:22:19.779Z,47.59
2023-04-30T10:24:37.044Z,49.21
2023-04-30T10:26:54.367Z,44.75
2023-04-30T10:29:12.003Z,42.42
2023-04-30T10:31:29.325Z,46.50
2023-04-30T10:33:46.256Z,46.65
2023-04-30T10:36:03.526Z,47.32
2023-04-30T10:38:20.774Z,47.66
2023-04-30T10:40:38.028Z,46.19
2023-04-30T10:42:55.950Z,46.24
2023-04-30T10:45:13.213Z,46.77
2023-04-30T10:47:31.154Z,43.84
2023-04-30T10:49:48.542Z,47.62
2023-04-30T10:52:06.919Z,45.06
2023-04-30T10:54:24.319Z,44.15
2023-04-30T10:56:41.650Z,45.47
2023-04-30T10:58:58.576Z,45.89
2023-04-30T11:01:15.908Z,44.47
2023-04-30T11:03:33.266Z,45.31
2023-04-30T11:05:50.581Z,45.42
2023-04-30T11:08:07.874Z,44.37
2023-04-30T11:10:25.208Z,44.07
2023-04-30T11:12:42.566Z,42.26
2023-04-30T11:14:59.995Z,40.59
2023-04-30T11:17:18.222Z,42.38
2023-04-30T11:19:35.450Z,44.22
2023-04-30T11:21:52.819Z,44.50
2023-04-30T11:24:10.120Z,43.78
2023-04-30T11:26:27.377Z,44.49
2023-04-30T11:28:45.709Z,43.40
2023-04-30T11:31:03.670Z,44.07
2023-04-30T11:33:22.016Z,44.42
2023-04-30T11:35:39.337Z,44.08
2023-04-30T11:37:56.692Z,43.48
2023-04-30T11:40:15.244Z,44.25
2023-04-30T11:42:33.043Z,44.97
2023-04-30T11:44:50.335Z,44.11
2023-04-30T11:47:07.600Z,42.35
2023-04-30T11:49:24.976Z,40.90
2023-04-30T11:51:42.199Z,40.79
2023-04-30T11:53:59.430Z,44.53
2023-04-30T11:56:16.688Z,43.92
2023-04-30T11:58:34.377Z,43.08
2023-04-30T12:00:51.634Z,44.86
2023-04-30T12:03:08.978Z,41.68
2023-04-30T12:05:26.318Z,41.32
2023-04-30T12:07:43.631Z,44.31
2023-04-30T12:10:00.953Z,39.65
2023-04-30T12:12:18.778Z,43.21
2023-04-30T12:14:36.485Z,40.47
2023-04-30T12:16:53.633Z,42.52
2023-04-30T12:19:11.883Z,41.04
2023-04-30T12:21:28.814Z,40.81
2023-04-30T12:23:46.487Z,41.12
2023-04-30T12:26:04.785Z,42.33
2023-04-30T12:28:22.427Z,40.94
2023-04-30T12:30:39.713Z,43.28
2023-04-30T12:32:57.075Z,41.69
2023-04-30T12:35:14.140Z,42.85
2023-04-30T12:37:31.471Z,43.84
2023-04-30T12:39:48.410Z,42.29
2023-04-30T12:42:05.689Z,44.34
2023-04-30T12:44:24.003Z,41.92
2023-04-30T12:46:41.059Z,42.78
2023-04-30T12:48:58.520Z,43.08
2023-04-30T12:51:15.787Z,44.25
2023-04-30T12:53:32.740Z,43.32
2023-04-30T12:55:49.648Z,42.58
2023-04-30T12:58:06.965Z,44.12
2023-04-30T13:00:24.626Z,44.67
2023-04-30T13:02:41.906Z,43.01
2023-04-30T13:04:59.362Z,43.16
2023-04-30T13:07:16.629Z,43.50
2023-04-30T13:09:33.920Z,40.64
2023-04-30T13:11:51.179Z,43.01
2023-04-30T13:14:08.047Z,43.24
2023-04-30T13:16:25.864Z,42.44
2023-04-30T13:18:43.583Z,41.63
2023-04-30T13:21:00.909Z,40.50
2023-04-30T13:23:18.828Z,42.50
2023-04-30T13:25:35.761Z,38.86
2023-04-30T13:27:53.027Z,41.72
2023-04-30T13:30:10.356Z,41.07
2023-04-30T13:32:27.766Z,42.11
2023-04-30T13:34:45.055Z,41.82
2023-04-30T13:37:02.289Z,39.80
2023-04-30T13:39:19.661Z,41.50
2023-04-30T13:41:36.956Z,41.69
2023-04-30T13:43:54.145Z,43.53
2023-04-30T13:46:11.396Z,44.00
2023-04-30T13:48:28.338Z,44.61
2023-04-30T13:50:45.649Z,43.21
2023-04-30T13:53:02.935Z,41.13
2023-04-30T13:55:20.198Z,41.34
2023-04-30T13:57:37.559Z,41.45
2023-04-30T13:59:55.004Z,40.13
2023-04-30T14:02:13.114Z,39.95
2023-04-30T14:04:30.385Z,41.83
2023-04-30T14:06:47.828Z,42.17
2023-04-30T14:09:05.152Z,42.53
2023-04-30T14:11:22.458Z,41.53
2023-04-30T14:13:39.346Z,39.42
2023-04-30T14:15:56.705Z,41.44
2023-04-30T14:18:15.152Z,41.29
2023-04-30T14:20:32.189Z,41.76
2023-04-30T14:22:49.472Z,41.78
2023-04-30T14:25:06.396Z,43.07
2023-04-30T14:27:23.477Z,42.60
2023-04-30T14:29:40.767Z,42.64
2023-04-30T14:31:58.159Z,43.12
2023-04-30T14:34:15.951Z,44.22
2023-04-30T14:36:33.291Z,43.29
2023-04-30T14:38:50.580Z,43.20
2023-04-30T14:41:08.520Z,44.06
2023-04-30T14:43:25.465Z,41.92
2023-04-30T14:45:42.410Z,41.32
2023-04-30T14:47:59.718Z,41.74
2023-04-30T14:50:16.955Z,41.85
2023-04-30T14:52:34.047Z,40.58
2023-04-30T14:54:51.415Z,41.75
2023-04-30T14:57:09.695Z,42.21
2023-04-30T14:59:26.985Z,41.23
2023-04-30T15:01:44.379Z,42.56
2023-04-30T15:04:01.502Z,43.43
2023-04-30T15:06:18.468Z,44.63
2023-04-30T15:08:37.961Z,43.90
2023-04-30T15:10:56.299Z,43.08
2023-04-30T15:13:13.211Z,43.46
2023-04-30T15:15:30.311Z,43.38
2023-04-30T15:17:47.292Z,45.46
2023-04-30T15:20:04.741Z,43.35
2023-04-30T15:22:21.949Z,43.40
2023-04-30T15:24:38.882Z,42.22
2023-04-30T15:26:56.194Z,42.98
2023-04-30T15:29:13.506Z,42.39
2023-04-30T15:31:31.847Z,42.53
2023-04-30T15:33:50.201Z,43.30
2023-04-30T15:36:07.114Z,42.62
2023-04-30T15:38:24.446Z,43.02
2023-04-30T15:40:41.717Z,42.38
2023-04-30T15:42:59.415Z,43.15
2023-04-30T15:45:17.342Z,41.09
2023-04-30T15:47:34.659Z,43.87
2023-04-30T15:49:51.724Z,43.20
2023-04-30T15:52:09.050Z,43.86
2023-04-30T15:54:26.325Z,44.98
2023-04-30T15:56:43.989Z,45.28
2023-04-30T15:59:00.884Z,43.80
2023-04-30T16:01:18.170Z,45.76
2023-04-30T16:03:36.155Z,45.33
2023-04-30T16:05:54.248Z,44.45
2023-04-30T16:08:11.487Z,44.90
2023-04-30T16:10:28.765Z,44.74
2023-04-30T16:12:46.148Z,46.06
2023-04-30T16:15:03.059Z,44.76
2023-04-30T16:17:20.382Z,44.80
2023-04-30T16:19:38.056Z,43.86
2023-04-30T16:21:55.001Z,44.49
2023-04-30T16:24:13.231Z,43.20
2023-04-30T16:26:31.183Z,43.06
2023-04-30T16:28:48.493Z,42.92
2023-04-30T16:31:06.478Z,43.42
2023-04-30T16:33:24.212Z,43.65
2023-04-30T16:35:41.533Z,42.47
2023-04-30T16:37:58.451Z,43.77
2023-04-30T16:40:15.379Z,44.17
2023-04-30T16:42:32.707Z,44.58
2023-04-30T16:44:49.996Z,44.12
2023-04-30T16:47:07.241Z,43.84
2023-04-30T16:49:25.118Z,45.54
2023-04-30T16:51:42.348Z,44.75
2023-04-30T16:54:00.670Z,45.07
2023-04-30T16:56:17.884Z,46.89
2023-04-30T16:58:35.158Z,44.49
2023-04-30T17:00:52.425Z,45.38
2023-04-30T17:03:09.847Z,46.39
2023-04-30T17:05:28.183Z,45.69
2023-04-30T17:07:48.784Z,44.68
2023-04-30T17:10:06.205Z,46.92
2023-04-30T17:12:23.073Z,46.58
2023-04-30T17:14:39.964Z,47.51
2023-04-30T17:16:56.946Z,45.81
2023-04-30T17:19:13.856Z,47.06
2023-04-30T17:21:31.504Z,46.82
2023-04-30T17:23:49.753Z,47.23
2023-04-30T17:26:06.986Z,45.41
2023-04-30T17:28:24.236Z,47.13
2023-04-30T17:30:41.538Z,48.00
2023-04-30T17:32:58.507Z,47.44
2023-04-30T17:35:16.878Z,46.26
2023-04-30T17:37:33.754Z,46.34
2023-04-30T17:39:51.402Z,47.23
2023-04-30T17:42:09.082Z,49.61
2023-04-30T17:44:27.279Z,48.57
2023-04-30T17:46:44.997Z,50.55
2023-04-30T17:49:02.100Z,50.57
2023-04-30T17:51:19.396Z,49.83
2023-04-30T17:53:36.628Z,50.38
2023-04-30T17:55:53.916Z,52.15
2023-04-30T17:58:11.154Z,53.37
2023-04-30T18:00:28.080Z,53.14
2023-04-30T18:02:45.428Z,55.12
2023-04-30T18:05:03.744Z,56.14
2023-04-30T18:07:21.466Z,55.71
2023-04-30T18:09:38.723Z,56.53
2023-04-30T18:11:56.379Z,57.81
2023-04-30T18:14:14.568Z,57.30
2023-04-30T18:16:31.503Z,58.25
2023-04-30T18:18:48.760Z,59.04
2023-04-30T18:21:07.056Z,59.78
2023-04-30T18:23:24.393Z,59.70
2023-04-30T18:25:41.341Z,59.49
2023-04-30T18:27:58.672Z,59.73
2023-04-30T18:30:16.403Z,59.87
2023-04-30T18:32:34.428Z,61.24
2023-04-30T18:34:51.481Z,62.36
2023-04-30T18:37:08.761Z,62.72
2023-04-30T18:39:26.022Z,62.51
2023-04-30T18:41:43.388Z,62.58
2023-04-30T18:44:00.618Z,62.94
2023-04-30T18:46:17.947Z,63.33
2023-04-30T18:48:35.341Z,64.78
2023-04-30T18:50:52.281Z,64.27
2023-04-30T18:53:09.572Z,65.70
2023-04-30T18:55:26.822Z,65.08
2023-04-30T18:57:43.736Z,65.43
2023-04-30T19:00:01.101Z,65.77
2023-04-30T19:02:18.461Z,64.86
2023-04-30T19:04:35.808Z,65.24
2023-04-30T19:06:53.183Z,65.66
2023-04-30T19:09:10.530Z,67.34
2023-04-30T19:11:27.737Z,66.29
2023-04-30T19:13:45.032Z,67.87
2023-04-30T19:16:02.333Z,68.00
2023-04-30T19:18:19.590Z,68.57
2023-04-30T19:20:37.516Z,68.22
2023-04-30T19:22:54.879Z,67.92
2023-04-30T19:25:14.880Z,69.18
2023-04-30T19:27:33.174Z,68.69
2023-04-30T19:29:50.474Z,69.61
2023-04-30T19:32:07.843Z,69.11
2023-04-30T19:34:25.126Z,70.77
2023-04-30T19:36:42.848Z,71.03
2023-04-30T19:39:00.081Z,69.90
2023-04-30T19:41:19.722Z,69.95
2023-04-30T19:43:37.060Z,71.05
2023-04-30T19:45:54.449Z,70.53
2023-04-30T19:48:11.523Z,72.40
2023-04-30T19:50:28.473Z,72.45
2023-04-30T19:52:45.827Z,71.33
2023-04-30T19:55:03.149Z,71.63
2023-04-30T19:57:20.437Z,72.77
2023-04-30T19:59:37.770Z,73.33
2023-04-30T20:01:56.475Z,73.85
2023-04-30T20:04:13.498Z,72.45
2023-04-30T20:06:30.894Z,72.77
2023-04-30T20:08:48.197Z,73.70
2023-04-30T20:11:05.518Z,72.90
2023-04-30T20:13:22.909Z,73.92
2023-04-30T20:15:40.292Z,73.83
2023-04-30T20:17:57.725Z,74.13
2023-04-30T20:20:14.964Z,74.05
2023-04-30T20:22:31.916Z,74.18
2023-04-30T20:24:48.829Z,74.06
2023-04-30T20:27:06.158Z,74.76
2023-04-30T20:29:23.457Z,75.09
2023-04-30T20:31:41.912Z,75.58
2023-04-30T20:34:00.258Z,75.21
2023-04-30T20:36:17.545Z,75.45
2023-04-30T20:38:35.857Z,75.36
2023-04-30T20:40:53.212Z,75.62
2023-04-30T20:43:10.439Z,76.17
2023-04-30T20:45:27.931Z,75.85
2023-04-30T20:47:45.324Z,76.67
2023-04-30T20:50:02.279Z,76.37
2023-04-30T20:52:19.597Z,76.78
2023-04-30T20:54:36.921Z,76.78
2023-04-30T20:56:53.845Z,76.61
2023-04-30T20:59:11.752Z,76.67
2023-04-30T21:01:29.054Z,77.10
2023-04-30T21:03:46.465Z,77.14
2023-04-30T21:06:04.471Z,76.54
2023-04-30T21:08:21.853Z,77.51
2023-04-30T21:10:39.574Z,76.50
2023-04-30T21:12:56.878Z,77.25
2023-04-30T21:15:13.894Z,77.98
2023-04-30T21:17:30.879Z,77.86
2023-04-30T21:19:48.230Z,77.97
2023-04-30T21:22:05.271Z,77.95
2023-04-30T21:24:22.517Z,78.11
2023-04-30T21:26:39.776Z,78.83
2023-04-30T21:28:56.938Z,78.24
2023-04-30T21:31:14.210Z,79.35
2023-04-30T21:33:31.257Z,79.35
2023-04-30T21:35:50.940Z,79.21
2023-04-30T21:38:08.222Z,78.76
2023-04-30T21:40:25.256Z,79.48
2023-04-30T21:42:42.507Z,79.94
2023-04-30T21:44:59.779Z,79.87
2023-04-30T21:47:18.097Z,79.86
2023-04-30T21:49:35.463Z,79.85
2023-04-30T21:51:52.723Z,80.58
2023-04-30T21:54:09.970Z,80.71
2023-04-30T21:56:27.252Z,80.05
2023-04-30T21:58:44.477Z,81.53
2023-04-30T22:01:02.749Z,80.77
2023-04-30T22:03:20.187Z,80.86
2023-04-30T22:05:37.311Z,81.99
2023-04-30T22:07:54.613Z,81.88
2023-04-30T22:10:12.227Z,80.29
2023-04-30T22:12:29.522Z,81.73
2023-04-30T22:14:46.819Z,81.50
2023-04-30T22:17:04.058Z,80.78
2023-04-30T22:19:22.614Z,81.63
2023-04-30T22:21:39.980Z,80.77
2023-04-30T22:23:57.307Z,80.64
2023-04-30T22:26:14.604Z,81.37
2023-04-30T22:28:31.547Z,82.05
2023-04-30T22:30:48.780Z,81.63
2023-04-30T22:33:06.074Z,81.89
2023-04-30T22:35:23.042Z,81.74
2023-04-30T22:37:40.692Z,82.57
2023-04-30T22:39:58.393Z,82.86
2023-04-30T22:42:16.136Z,82.72
2023-04-30T22:44:33.424Z,81.59
2023-04-30T22:46:50.783Z,82.90
2023-04-30T22:51:26.206Z,82.71
2023-04-30T22:53:43.494Z,81.57
2023-04-30T22:56:00.696Z,82.36
2023-04-30T22:58:18.588Z,82.13
2023-04-30T23:00:35.540Z,83.05
2023-04-30T23:02:52.818Z,82.90
2023-04-30T23:05:09.796Z,82.19
2023-04-30T23:07:28.082Z,82.21
2023-04-30T23:09:45.160Z,82.19
2023-04-30T23:12:02.452Z,82.35
2023-04-30T23:14:19.821Z,82.08
2023-04-30T23:16:37.204Z,82.39
2023-04-30T23:18:54.469Z,82.48
2023-04-30T23:21:11.697Z,82.44
2023-04-30T23:23:29.480Z,82.87
2023-04-30T23:25:46.424Z,82.35
2023-04-30T23:28:03.686Z,82.68
2023-04-30T23:30:20.915Z,83.67
2023-04-30T23:32:38.285Z,83.74
2023-04-30T23:34:57.830Z,82.86
2023-04-30T23:37:15.116Z,82.83
2023-04-30T23:39:32.431Z,84.20
2023-04-30T23:41:49.721Z,84.37
2023-04-30T23:44:06.834Z,84.26
2023-04-30T23:46:24.516Z,83.41
2023-04-30T23:48:41.479Z,84.15
2023-04-30T23:50:58.788Z,83.59
2023-04-30T23:53:16.208Z,83.46
2023-04-30T23:55:33.647Z,84.43
2023-04-30T23:57:50.886Z,84.81
